Astor, Florida
Current Conditions -  °F | °C
As of 6:50 PM on Thursday 18 Dec 2014 (Local Time) from KOMN Reporting Station
Clear Clear  
Wind Chill: 12°   Ceiling: Unl
Heat Index: 12°   Visibility: 10mi
Dew Point:   Wind: 0mph
Humidity: 82%   Direction: NA
Pressure: 30.12"   Gusts: NA
Location:  29.15°N, 81.53°W
Report Text: KOMN 182350Z 00000KT 10SM SKC 12/09 A3012 RMK LAST
Loading
Personal Weather Stations






























Interactive Weather Map New forecast layout! Learn more

10-Day Weather Forecast

Advertisements
Track Severe Weather on mobile